createdAt,value
2019-05-10T00:00:15.274Z,4.13
2019-05-10T00:03:01.874Z,4.37
2019-05-10T00:05:48.296Z,4.50
2019-05-10T00:08:34.921Z,4.53
2019-05-10T00:11:25.949Z,4.47
2019-05-10T00:14:04.460Z,4.50
2019-05-10T00:16:33.575Z,4.33
2019-05-10T00:19:02.622Z,4.17
2019-05-10T00:21:31.671Z,3.97
2019-05-10T00:24:00.771Z,3.47
2019-05-10T00:26:29.905Z,3.90
2019-05-10T00:28:58.943Z,4.27
2019-05-10T00:31:28.027Z,4.20
2019-05-10T00:33:57.078Z,4.93
2019-05-10T00:36:26.230Z,4.03
2019-05-10T00:38:55.292Z,4.40
2019-05-10T00:41:24.424Z,4.80
2019-05-10T00:43:53.511Z,4.37
2019-05-10T00:46:22.652Z,4.37
2019-05-10T00:48:51.769Z,4.77
2019-05-10T00:51:20.877Z,4.60
2019-05-10T00:53:49.889Z,4.90
2019-05-10T00:56:19.012Z,4.63
2019-05-10T00:58:48.151Z,4.93
2019-05-10T01:01:18.782Z,4.77
2019-05-10T01:03:47.966Z,4.50
2019-05-10T01:06:17.021Z,4.80
2019-05-10T01:08:46.095Z,4.80
2019-05-10T01:11:15.170Z,4.77
2019-05-10T01:13:44.378Z,5.17
2019-05-10T01:16:13.398Z,5.23
2019-05-10T01:18:42.513Z,5.30
2019-05-10T01:21:11.586Z,4.90
2019-05-10T01:23:40.644Z,5.10
2019-05-10T01:26:09.852Z,5.47
2019-05-10T01:28:38.954Z,4.97
2019-05-10T01:31:08.000Z,5.00
2019-05-10T01:33:37.080Z,5.90
2019-05-10T01:36:06.185Z,5.17
2019-05-10T01:38:35.250Z,5.13
2019-05-10T01:41:05.184Z,5.43
2019-05-10T01:43:34.905Z,5.43
2019-05-10T01:46:03.997Z,5.20
2019-05-10T01:48:33.083Z,4.90
2019-05-10T01:51:02.247Z,5.63
2019-05-10T01:53:31.389Z,4.90
2019-05-10T01:56:00.415Z,4.57
2019-05-10T01:58:29.482Z,4.70
2019-05-10T02:00:58.533Z,4.43
2019-05-10T02:03:27.614Z,4.80
2019-05-10T02:05:56.667Z,4.97
2019-05-10T02:08:25.706Z,4.83
2019-05-10T02:10:54.799Z,4.87
2019-05-10T02:13:23.881Z,5.53
2019-05-10T02:15:52.982Z,4.93
2019-05-10T02:18:22.049Z,4.50
2019-05-10T02:20:51.077Z,5.20
2019-05-10T02:23:20.262Z,5.07
2019-05-10T02:25:49.445Z,5.07
2019-05-10T02:28:18.548Z,4.43
2019-05-10T02:30:47.583Z,4.70
2019-05-10T02:33:16.609Z,4.40
2019-05-10T02:35:45.747Z,5.70
2019-05-10T02:38:14.807Z,7.27
2019-05-10T02:40:44.082Z,7.30
2019-05-10T02:43:13.172Z,6.80
2019-05-10T02:45:42.310Z,6.10
2019-05-10T02:48:11.415Z,15.20
2019-05-10T02:50:40.484Z,10.00
2019-05-10T02:53:09.570Z,6.97
2019-05-10T02:55:38.962Z,4.70
2019-05-10T02:58:08.297Z,4.63
2019-05-10T03:00:39.023Z,4.17
2019-05-10T03:03:08.566Z,4.60
2019-05-10T03:05:39.086Z,4.07
2019-05-10T03:08:08.125Z,3.87
2019-05-10T03:10:37.874Z,4.27
2019-05-10T03:13:06.939Z,3.80
2019-05-10T03:15:39.137Z,3.53
2019-05-10T03:18:08.275Z,4.23
2019-05-10T03:20:37.881Z,3.83
2019-05-10T03:23:08.331Z,4.23
2019-05-10T03:25:38.506Z,3.57
2019-05-10T03:28:07.588Z,3.60
2019-05-10T03:30:36.637Z,3.87
2019-05-10T03:33:05.729Z,4.20
2019-05-10T03:35:34.752Z,4.20
2019-05-10T03:38:03.811Z,4.13
2019-05-10T03:40:32.906Z,3.73
2019-05-10T03:43:02.044Z,3.60
2019-05-10T03:45:31.055Z,3.70
2019-05-10T03:48:00.205Z,3.70
2019-05-10T03:50:29.364Z,3.90
2019-05-10T03:52:58.403Z,4.20
2019-05-10T03:55:27.442Z,4.50
2019-05-10T03:57:56.517Z,5.80
2019-05-10T04:00:25.605Z,5.73
2019-05-10T04:02:54.660Z,5.17
2019-05-10T04:05:23.696Z,4.43
2019-05-10T04:07:52.716Z,4.00
2019-05-10T04:10:21.811Z,3.90
2019-05-10T04:12:50.857Z,4.30
2019-05-10T04:15:19.934Z,5.17
2019-05-10T04:17:50.408Z,4.53
2019-05-10T04:20:19.759Z,5.33
2019-05-10T04:22:48.779Z,4.97
2019-05-10T04:25:17.850Z,5.20
2019-05-10T04:27:46.941Z,5.13
2019-05-10T04:30:16.604Z,5.00
2019-05-10T04:32:45.670Z,4.67
2019-05-10T04:35:14.821Z,4.20
2019-05-10T04:37:43.989Z,25.33
2019-05-10T04:40:13.060Z,8.27
2019-05-10T04:42:42.106Z,6.07
2019-05-10T04:45:11.142Z,6.00
2019-05-10T04:47:40.201Z,5.97
2019-05-10T04:50:09.220Z,5.87
2019-05-10T04:52:38.378Z,6.83
2019-05-10T04:55:07.510Z,6.77
2019-05-10T04:57:50.004Z,8.10
2019-05-10T05:00:09.388Z,7.80
2019-05-10T05:02:38.898Z,6.97
2019-05-10T05:05:09.367Z,6.30
2019-05-10T05:07:38.432Z,5.47
2019-05-10T05:10:07.893Z,5.47
2019-05-10T05:12:36.958Z,5.77
2019-05-10T05:15:06.302Z,5.63
2019-05-10T05:17:39.990Z,5.27
2019-05-10T05:20:19.863Z,5.30
2019-05-10T05:22:49.117Z,5.67
2019-05-10T05:25:21.896Z,6.87
2019-05-10T05:28:06.130Z,6.10
2019-05-10T05:30:21.141Z,7.30
2019-05-10T05:32:50.225Z,6.77
2019-05-10T05:35:20.364Z,6.23
2019-05-10T05:37:49.491Z,6.10
2019-05-10T05:40:18.619Z,5.70
2019-05-10T05:42:47.762Z,6.13
2019-05-10T05:45:16.897Z,5.37
2019-05-10T05:47:46.032Z,5.17
2019-05-10T05:50:15.107Z,5.57
2019-05-10T05:52:44.177Z,6.10
2019-05-10T05:55:13.226Z,6.00
2019-05-10T05:57:42.379Z,5.77
2019-05-10T06:00:11.620Z,5.47
2019-05-10T06:02:44.982Z,5.57
2019-05-10T06:05:11.402Z,5.27
2019-05-10T06:07:40.494Z,5.73
2019-05-10T06:10:16.894Z,6.43
2019-05-10T06:12:44.556Z,5.60
2019-05-10T06:15:11.904Z,5.87
2019-05-10T06:17:40.986Z,6.17
2019-05-10T06:20:10.081Z,6.10
2019-05-10T06:22:43.752Z,5.43
2019-05-10T06:25:10.010Z,6.73
2019-05-10T06:27:41.094Z,6.03
2019-05-10T06:30:09.962Z,5.73
2019-05-10T06:32:39.008Z,5.87
2019-05-10T06:35:08.217Z,5.80
2019-05-10T06:37:37.356Z,5.30
2019-05-10T06:40:06.493Z,5.37
2019-05-10T06:42:36.254Z,4.93
2019-05-10T06:45:14.047Z,5.10
2019-05-10T06:47:42.203Z,5.27
2019-05-10T06:50:08.539Z,5.07
2019-05-10T06:52:37.532Z,4.47
2019-05-10T06:55:08.125Z,4.07
2019-05-10T06:57:37.164Z,4.10
2019-05-10T07:00:07.891Z,3.93
2019-05-10T07:02:37.246Z,4.10
2019-05-10T07:05:06.625Z,7.63
2019-05-10T07:07:43.761Z,4.47
2019-05-10T07:10:15.707Z,3.50
2019-05-10T07:12:37.616Z,3.70
2019-05-10T07:15:08.573Z,4.37
2019-05-10T07:17:45.325Z,4.23
2019-05-10T07:20:08.480Z,4.27
2019-05-10T07:22:37.506Z,4.73
2019-05-10T07:25:07.636Z,4.20
2019-05-10T07:27:38.597Z,3.77
2019-05-10T07:30:07.696Z,4.23
2019-05-10T07:32:36.747Z,4.20
2019-05-10T07:35:05.880Z,3.63
2019-05-10T07:37:34.949Z,3.80
2019-05-10T07:40:04.281Z,3.40
2019-05-10T07:42:33.381Z,3.33
2019-05-10T07:45:02.677Z,3.30
2019-05-10T07:47:32.657Z,2.97
2019-05-10T07:50:03.770Z,2.87
2019-05-10T07:52:36.594Z,4.13
2019-05-10T07:55:05.328Z,3.40
2019-05-10T07:57:34.364Z,3.60
2019-05-10T08:00:06.015Z,3.53
2019-05-10T08:02:34.295Z,3.33
2019-05-10T08:05:04.974Z,3.13
2019-05-10T08:07:34.279Z,3.27
2019-05-10T08:10:04.816Z,3.40
2019-05-10T08:12:35.216Z,4.17
2019-05-10T08:15:05.529Z,3.30
2019-05-10T08:17:35.431Z,4.23
2019-05-10T08:20:08.891Z,3.60
2019-05-10T08:22:41.617Z,3.50
2019-05-10T08:25:07.446Z,4.37
2019-05-10T08:27:36.535Z,4.10
2019-05-10T08:30:20.362Z,4.13
2019-05-10T08:32:36.640Z,3.60
2019-05-10T08:35:15.927Z,4.00
2019-05-10T08:37:37.990Z,4.10
2019-05-10T08:40:07.287Z,4.40
2019-05-10T08:42:45.584Z,4.90
2019-05-10T08:45:08.895Z,4.43
2019-05-10T08:47:37.897Z,4.33
2019-05-10T08:50:22.357Z,4.00
2019-05-10T08:52:42.339Z,4.90
2019-05-10T08:55:12.474Z,6.90
2019-05-10T08:57:44.439Z,5.70
2019-05-10T09:00:13.313Z,4.83
2019-05-10T09:02:43.543Z,5.20
2019-05-10T09:05:12.714Z,5.30
2019-05-10T09:07:45.314Z,5.03
2019-05-10T09:10:13.611Z,4.73
2019-05-10T09:12:50.877Z,4.80
2019-05-10T09:15:15.726Z,4.20
2019-05-10T09:17:44.816Z,4.03
2019-05-10T09:20:20.843Z,3.87
2019-05-10T09:22:45.809Z,3.37
2019-05-10T09:25:15.458Z,3.50
2019-05-10T09:27:44.536Z,3.77
2019-05-10T09:30:18.600Z,3.77
2019-05-10T09:32:49.173Z,4.00
2019-05-10T09:35:18.249Z,3.50
2019-05-10T09:37:47.879Z,3.13
2019-05-10T09:40:18.217Z,3.07
2019-05-10T09:42:47.347Z,2.60
2019-05-10T09:45:16.458Z,2.40
2019-05-10T09:47:45.577Z,2.23
2019-05-10T09:50:14.613Z,2.77
2019-05-10T09:52:43.654Z,3.00
2019-05-10T09:55:14.886Z,3.10
2019-05-10T09:57:43.530Z,3.30
2019-05-10T10:00:12.646Z,2.60
2019-05-10T10:02:47.710Z,2.70
2019-05-10T10:05:12.533Z,2.80
2019-05-10T10:07:41.618Z,2.70
2019-05-10T10:10:12.950Z,2.80
2019-05-10T10:12:41.473Z,2.73
2019-05-10T10:15:13.995Z,2.53
2019-05-10T10:17:42.534Z,2.57
2019-05-10T10:20:12.096Z,2.57
2019-05-10T10:22:43.395Z,2.40
2019-05-10T10:25:11.910Z,2.10
2019-05-10T10:27:41.095Z,2.77
2019-05-10T10:30:12.631Z,2.40
2019-05-10T10:32:44.402Z,2.90
2019-05-10T10:35:13.310Z,3.10
2019-05-10T10:37:43.908Z,2.70
2019-05-10T10:40:15.355Z,2.70
2019-05-10T10:42:43.701Z,2.50
2019-05-10T10:45:12.733Z,3.03
2019-05-10T10:47:41.745Z,2.57
2019-05-10T10:50:13.662Z,2.90
2019-05-10T10:52:42.289Z,2.87
2019-05-10T10:55:13.342Z,2.70
2019-05-10T10:57:42.152Z,2.20
2019-05-10T11:00:11.362Z,2.10
2019-05-10T11:02:41.733Z,4.13
2019-05-10T11:05:11.051Z,2.10
2019-05-10T11:07:44.296Z,12.87
2019-05-10T11:10:16.102Z,2.73
2019-05-10T11:12:42.052Z,2.30
2019-05-10T11:15:11.623Z,2.60
2019-05-10T11:17:41.012Z,2.43
2019-05-10T11:20:11.506Z,2.10
2019-05-10T11:22:49.059Z,1.90
2019-05-10T11:25:13.098Z,1.67
2019-05-10T11:27:42.253Z,2.03
2019-05-10T11:30:12.101Z,2.03
2019-05-10T11:32:42.011Z,1.60
2019-05-10T11:35:11.969Z,1.90
2019-05-10T11:37:45.343Z,1.97
2019-05-10T11:40:12.718Z,1.60
2019-05-10T11:42:45.361Z,2.00
2019-05-10T11:45:12.949Z,2.00
2019-05-10T11:47:42.035Z,1.83
2019-05-10T11:50:20.219Z,1.60
2019-05-10T11:52:41.905Z,1.87
2019-05-10T11:55:11.727Z,1.60
2019-05-10T11:57:44.111Z,1.57
2019-05-10T12:00:24.305Z,1.77
2019-05-10T12:03:01.724Z,1.80
2019-05-10T12:05:19.908Z,1.70
2019-05-10T12:07:46.160Z,1.30
2019-05-10T12:10:20.932Z,1.57
2019-05-10T12:13:05.716Z,1.47
2019-05-10T12:15:24.755Z,1.87
2019-05-10T12:17:53.074Z,1.47
2019-05-10T12:20:26.887Z,1.90
2019-05-10T12:22:51.830Z,1.60
2019-05-10T12:25:37.954Z,1.73
2019-05-10T12:27:52.453Z,1.50
2019-05-10T12:30:21.765Z,1.67
2019-05-10T12:32:56.001Z,1.40
2019-05-10T12:35:21.644Z,1.40
2019-05-10T12:37:54.087Z,1.70
2019-05-10T12:40:24.251Z,2.00
2019-05-10T12:42:54.391Z,1.57
2019-05-10T12:45:23.555Z,2.00
2019-05-10T12:47:53.322Z,1.30
2019-05-10T12:50:23.182Z,1.57
2019-05-10T12:53:03.206Z,2.00
2019-05-10T12:55:23.153Z,1.87
2019-05-10T12:57:52.244Z,1.70
2019-05-10T13:00:21.547Z,1.77
2019-05-10T13:02:52.850Z,1.50
2019-05-10T13:05:30.797Z,1.77
2019-05-10T13:07:52.277Z,1.60
2019-05-10T13:10:21.405Z,1.50
2019-05-10T13:12:50.500Z,1.40
2019-05-10T13:15:24.774Z,1.67
2019-05-10T13:17:52.874Z,1.70
2019-05-10T13:20:21.468Z,2.00
2019-05-10T13:22:50.580Z,1.40
2019-05-10T13:25:20.324Z,1.40
2019-05-10T13:27:49.558Z,1.40
2019-05-10T13:30:27.076Z,1.87
2019-05-10T13:32:52.840Z,1.40
2019-05-10T13:35:21.534Z,1.20
2019-05-10T13:37:50.662Z,1.13
2019-05-10T13:40:19.982Z,1.43
2019-05-10T13:42:49.258Z,1.50
2019-05-10T13:45:18.418Z,1.30
2019-05-10T13:47:47.745Z,1.50
2019-05-10T13:50:23.288Z,1.60
2019-05-10T13:52:52.362Z,1.43
2019-05-10T13:55:22.985Z,1.63
2019-05-10T13:57:54.107Z,1.40
2019-05-10T14:00:33.438Z,1.50
2019-05-10T14:02:53.627Z,2.37
2019-05-10T14:05:23.882Z,1.40
2019-05-10T14:07:53.386Z,1.70
2019-05-10T14:10:23.311Z,1.47
2019-05-10T14:12:56.210Z,1.60
2019-05-10T14:15:24.424Z,1.30
2019-05-10T14:17:53.482Z,1.70
2019-05-10T14:20:27.628Z,1.70
2019-05-10T14:22:55.540Z,1.80
2019-05-10T14:25:29.642Z,1.50
2019-05-10T14:27:55.247Z,1.40
2019-05-10T14:30:24.495Z,1.30
2019-05-10T14:32:53.534Z,1.67
2019-05-10T14:35:24.375Z,1.53
2019-05-10T14:37:53.568Z,1.37
2019-05-10T14:40:30.726Z,1.50
2019-05-10T14:42:53.360Z,1.40
2019-05-10T14:45:22.516Z,1.30
2019-05-10T14:47:51.989Z,1.60
2019-05-10T14:50:26.380Z,1.17
2019-05-10T14:52:51.963Z,1.23
2019-05-10T14:55:21.075Z,1.60
2019-05-10T14:57:51.211Z,1.50
2019-05-10T15:00:20.336Z,1.80
2019-05-10T15:02:49.442Z,1.50
2019-05-10T15:05:18.603Z,2.87
2019-05-10T15:07:50.933Z,2.93
2019-05-10T15:10:18.563Z,2.07
2019-05-10T15:12:47.725Z,1.27
2019-05-10T15:15:16.800Z,1.27
2019-05-10T15:17:46.042Z,1.33
2019-05-10T15:20:15.152Z,0.90
2019-05-10T15:22:44.315Z,1.33
2019-05-10T15:25:15.173Z,0.93
2019-05-10T15:27:44.407Z,1.60
2019-05-10T15:30:13.492Z,1.53
2019-05-10T15:32:42.625Z,2.40
2019-05-10T15:35:11.880Z,1.30
2019-05-10T15:37:46.207Z,1.20
2019-05-10T15:40:12.160Z,1.27
2019-05-10T15:42:41.442Z,1.20
2019-05-10T15:45:12.869Z,1.20
2019-05-10T15:47:50.802Z,1.40
2019-05-10T15:50:12.278Z,1.70
2019-05-10T15:52:46.245Z,1.63
2019-05-10T15:55:16.461Z,1.40
2019-05-10T15:57:44.669Z,1.73
2019-05-10T16:00:13.672Z,1.40
2019-05-10T16:02:42.797Z,1.30
2019-05-10T16:05:23.885Z,1.10
2019-05-10T16:07:46.343Z,1.20
2019-05-10T16:10:13.435Z,1.13
2019-05-10T16:12:43.059Z,1.33
2019-05-10T16:15:20.180Z,1.10
2019-05-10T16:17:45.763Z,1.43
2019-05-10T16:20:14.856Z,1.30
2019-05-10T16:22:43.914Z,1.30
2019-05-10T16:25:12.993Z,1.47
2019-05-10T16:27:44.918Z,1.30
2019-05-10T16:30:17.758Z,1.60
2019-05-10T16:32:44.072Z,1.23
2019-05-10T16:35:14.684Z,1.60
2019-05-10T16:37:44.006Z,1.53
2019-05-10T16:40:13.349Z,1.93
2019-05-10T16:42:42.416Z,1.43
2019-05-10T16:45:11.474Z,1.17
2019-05-10T16:47:40.549Z,3.07
2019-05-10T16:50:09.696Z,3.30
2019-05-10T16:52:38.755Z,2.10
2019-05-10T16:55:09.795Z,1.90
2019-05-10T16:57:39.463Z,1.50
2019-05-10T17:00:10.525Z,1.80
2019-05-10T17:02:42.012Z,2.07
2019-05-10T17:05:15.223Z,1.60
2019-05-10T17:07:42.412Z,1.50
2019-05-10T17:10:11.480Z,3.30
2019-05-10T17:12:40.553Z,1.30
2019-05-10T17:15:09.745Z,6.90
2019-05-10T17:17:39.288Z,4.40
2019-05-10T17:20:13.877Z,3.03
2019-05-10T17:22:39.378Z,2.60
2019-05-10T17:25:09.456Z,1.73
2019-05-10T17:27:38.529Z,1.47
2019-05-10T17:30:07.681Z,1.40
2019-05-10T17:32:36.897Z,1.67
2019-05-10T17:35:06.896Z,1.33
2019-05-10T17:37:37.519Z,1.50
2019-05-10T17:40:10.307Z,1.40
2019-05-10T17:42:41.388Z,1.47
2019-05-10T17:45:09.549Z,1.60
2019-05-10T17:47:38.618Z,1.50
2019-05-10T17:50:07.890Z,2.33
2019-05-10T17:52:36.948Z,5.40
2019-05-10T17:55:10.811Z,4.57
2019-05-10T17:57:37.199Z,1.87
2019-05-10T18:00:06.521Z,1.67
2019-05-10T18:02:35.484Z,1.50
2019-05-10T18:05:05.976Z,1.50
2019-05-10T18:07:36.439Z,1.90
2019-05-10T18:10:05.862Z,1.50
2019-05-10T18:12:35.004Z,1.57
2019-05-10T18:15:05.039Z,1.80
2019-05-10T18:17:34.284Z,1.60
2019-05-10T18:20:03.961Z,1.70
2019-05-10T18:22:41.833Z,1.60
2019-05-10T18:25:04.093Z,1.80
2019-05-10T18:27:33.083Z,1.97
2019-05-10T18:30:02.358Z,1.80
2019-05-10T18:32:35.556Z,1.70
2019-05-10T18:35:13.182Z,1.93
2019-05-10T18:37:33.368Z,1.80
2019-05-10T18:40:02.472Z,1.80
2019-05-10T18:42:31.568Z,1.87
2019-05-10T18:45:01.091Z,1.80
2019-05-10T18:47:30.342Z,2.07
2019-05-10T18:49:59.616Z,2.13
2019-05-10T18:52:29.366Z,1.73
2019-05-10T18:54:58.487Z,1.90
2019-05-10T18:57:27.631Z,1.87
2019-05-10T18:59:56.712Z,2.37
2019-05-10T19:02:25.846Z,1.93
2019-05-10T19:04:54.989Z,2.10
2019-05-10T19:07:24.076Z,2.00
2019-05-10T19:09:53.114Z,2.13
2019-05-10T19:12:24.120Z,1.90
2019-05-10T19:14:53.479Z,2.20
2019-05-10T19:17:22.681Z,2.30
2019-05-10T19:19:51.748Z,2.50
2019-05-10T19:22:20.894Z,2.43
2019-05-10T19:24:51.943Z,2.13
2019-05-10T19:27:24.921Z,2.07
2019-05-10T19:29:53.940Z,2.00
2019-05-10T19:32:23.044Z,2.50
2019-05-10T19:34:57.617Z,2.33
2019-05-10T19:37:31.379Z,2.23
2019-05-10T19:39:56.687Z,2.43
2019-05-10T19:42:26.304Z,2.40
2019-05-10T19:44:56.473Z,2.10
2019-05-10T19:47:26.116Z,2.20
2019-05-10T19:49:55.221Z,1.90
2019-05-10T19:52:26.176Z,2.27
2019-05-10T19:54:56.617Z,2.27
2019-05-10T19:57:25.885Z,2.30
2019-05-10T19:59:54.961Z,2.50
2019-05-10T20:02:24.170Z,2.70
2019-05-10T20:04:53.282Z,2.30
2019-05-10T20:07:22.358Z,2.50
2019-05-10T20:09:52.543Z,2.10
2019-05-10T20:12:21.724Z,2.63
2019-05-10T20:14:50.731Z,2.30
2019-05-10T20:17:20.194Z,2.83
2019-05-10T20:19:49.361Z,2.23
2019-05-10T20:22:19.031Z,2.70
2019-05-10T20:24:48.066Z,2.50
2019-05-10T20:27:17.201Z,2.67
2019-05-10T20:29:46.776Z,2.37
2019-05-10T20:32:15.855Z,2.50
2019-05-10T20:34:45.295Z,2.30
2019-05-10T20:37:19.912Z,2.70
2019-05-10T20:39:49.184Z,2.83
2019-05-10T20:42:18.629Z,2.60
2019-05-10T20:45:04.808Z,2.60
2019-05-10T20:47:21.806Z,2.20
2019-05-10T20:49:50.836Z,2.70
2019-05-10T20:52:19.902Z,2.50
2019-05-10T20:54:50.635Z,3.03
2019-05-10T20:57:20.443Z,3.00
2019-05-10T20:59:50.087Z,2.93
2019-05-10T21:02:19.231Z,3.00
2019-05-10T21:04:48.330Z,3.30
2019-05-10T21:07:17.839Z,3.17
2019-05-10T21:09:46.849Z,3.27
2019-05-10T21:12:16.206Z,3.27
2019-05-10T21:14:45.358Z,3.17
2019-05-10T21:17:14.453Z,2.97
2019-05-10T21:19:43.983Z,2.97
2019-05-10T21:22:13.822Z,3.40
2019-05-10T21:24:42.992Z,3.30
2019-05-10T21:27:12.093Z,3.13
2019-05-10T21:29:41.612Z,3.80
2019-05-10T21:32:10.933Z,4.13
2019-05-10T21:34:40.005Z,3.57
2019-05-10T21:37:09.068Z,4.23
2019-05-10T21:39:38.166Z,8.10
2019-05-10T21:42:07.351Z,4.70
2019-05-10T21:44:36.614Z,3.90
2019-05-10T21:47:05.669Z,3.60
2019-05-10T21:49:35.434Z,3.80
2019-05-10T21:52:04.607Z,3.73
2019-05-10T21:54:34.067Z,3.33
2019-05-10T21:57:03.300Z,3.57
2019-05-10T21:59:32.482Z,3.97
2019-05-10T22:02:01.545Z,4.57
2019-05-10T22:04:30.611Z,3.80
2019-05-10T22:06:59.699Z,3.70
2019-05-10T22:09:28.714Z,3.80
2019-05-10T22:11:59.980Z,4.20
2019-05-10T22:14:28.881Z,4.50
2019-05-10T22:16:57.917Z,4.03
2019-05-10T22:19:26.953Z,4.50
2019-05-10T22:21:56.070Z,4.33
2019-05-10T22:24:25.250Z,4.70
2019-05-10T22:26:54.345Z,4.57
2019-05-10T22:29:23.493Z,4.30
2019-05-10T22:31:52.726Z,3.87
2019-05-10T22:34:21.810Z,4.60
2019-05-10T22:36:50.879Z,4.33
2019-05-10T22:39:19.996Z,4.47
2019-05-10T22:41:52.740Z,4.20
2019-05-10T22:44:20.036Z,3.80
2019-05-10T22:46:49.083Z,4.00
2019-05-10T22:49:18.250Z,4.00
2019-05-10T22:51:47.306Z,4.00
2019-05-10T22:54:16.422Z,3.73
2019-05-10T22:56:45.417Z,3.70
2019-05-10T22:59:14.546Z,3.70
2019-05-10T23:01:43.625Z,3.90
2019-05-10T23:04:12.726Z,3.87
2019-05-10T23:06:41.879Z,4.00
2019-05-10T23:09:24.096Z,3.67
2019-05-10T23:11:42.191Z,4.10
2019-05-10T23:14:11.211Z,4.60
2019-05-10T23:16:40.273Z,4.87
2019-05-10T23:19:09.637Z,4.70
2019-05-10T23:21:38.864Z,6.80
2019-05-10T23:24:07.943Z,6.30
2019-05-10T23:26:37.073Z,5.77
2019-05-10T23:29:06.103Z,5.53
2019-05-10T23:31:35.666Z,5.00
2019-05-10T23:34:04.860Z,5.10
2019-05-10T23:36:33.880Z,4.80
2019-05-10T23:39:03.119Z,4.70
2019-05-10T23:41:32.144Z,4.87
2019-05-10T23:44:01.186Z,4.93
2019-05-10T23:46:30.312Z,4.97
2019-05-10T23:48:59.342Z,5.23
2019-05-10T23:51:28.442Z,4.93
2019-05-10T23:53:57.504Z,5.27
2019-05-10T23:56:26.665Z,4.97
2019-05-10T23:58:55.823Z,4.93
